sensor_id;sensor_type;location;lat;lon;timestamp;P1;durP1;ratioP1;P2;durP2;ratioP2
29006;SDS011;16104;48.642;9.008;2022-09-17T01:02:05;1.35;;;0.70;;
29006;SDS011;16104;48.642;9.008;2022-09-17T01:12:29;0.95;;;0.57;;
29006;SDS011;16104;48.642;9.008;2022-09-17T02:03:39;1.65;;;0.93;;
29006;SDS011;16104;48.642;9.008;2022-09-17T02:08:46;4.85;;;0.82;;
29006;SDS011;16104;48.642;9.008;2022-09-17T03:04:32;2.92;;;0.80;;
29006;SDS011;16104;48.642;9.008;2022-09-17T03:09:28;2.70;;;0.80;;
29006;SDS011;16104;48.642;9.008;2022-09-17T03:14:24;2.42;;;0.80;;
29006;SDS011;16104;48.642;9.008;2022-09-17T03:19:20;4.15;;;0.80;;
29006;SDS011;16104;48.642;9.008;2022-09-17T03:24:15;4.18;;;1.20;;
29006;SDS011;16104;48.642;9.008;2022-09-17T03:29:10;2.70;;;0.93;;
29006;SDS011;16104;48.642;9.008;2022-09-17T03:34:06;3.38;;;0.98;;
29006;SDS011;16104;48.642;9.008;2022-09-17T03:39:02;3.65;;;1.10;;
29006;SDS011;16104;48.642;9.008;2022-09-17T03:43:58;1.55;;;0.85;;
29006;SDS011;16104;48.642;9.008;2022-09-17T03:48:53;3.47;;;1.25;;
29006;SDS011;16104;48.642;9.008;2022-09-17T03:53:49;1.77;;;0.82;;
29006;SDS011;16104;48.642;9.008;2022-09-17T03:58:44;1.05;;;0.75;;
29006;SDS011;16104;48.642;9.008;2022-09-17T04:03:40;7.18;;;1.08;;
29006;SDS011;16104;48.642;9.008;2022-09-17T04:08:36;3.67;;;1.00;;
29006;SDS011;16104;48.642;9.008;2022-09-17T04:13:31;2.03;;;1.10;;
29006;SDS011;16104;48.642;9.008;2022-09-17T04:18:27;2.95;;;0.98;;
29006;SDS011;16104;48.642;9.008;2022-09-17T04:23:22;4.35;;;1.10;;
29006;SDS011;16104;48.642;9.008;2022-09-17T04:28:18;4.65;;;1.00;;
29006;SDS011;16104;48.642;9.008;2022-09-17T04:33:14;3.97;;;1.20;;
29006;SDS011;16104;48.642;9.008;2022-09-17T04:38:09;3.88;;;1.05;;
29006;SDS011;16104;48.642;9.008;2022-09-17T04:43:07;7.93;;;1.30;;
29006;SDS011;16104;48.642;9.008;2022-09-17T04:48:04;5.10;;;1.10;;
29006;SDS011;16104;48.642;9.008;2022-09-17T04:53:00;6.32;;;1.05;;
29006;SDS011;16104;48.642;9.008;2022-09-17T04:57:55;5.93;;;1.38;;
29006;SDS011;16104;48.642;9.008;2022-09-17T05:02:52;6.35;;;1.20;;
29006;SDS011;16104;48.642;9.008;2022-09-17T05:07:48;2.50;;;1.30;;
29006;SDS011;16104;48.642;9.008;2022-09-17T05:12:48;3.70;;;1.50;;
29006;SDS011;16104;48.642;9.008;2022-09-17T05:17:48;3.22;;;1.40;;
29006;SDS011;16104;48.642;9.008;2022-09-17T05:22:44;7.95;;;1.17;;
29006;SDS011;16104;48.642;9.008;2022-09-17T05:27:41;4.72;;;1.48;;
29006;SDS011;16104;48.642;9.008;2022-09-17T05:32:37;5.32;;;1.33;;
29006;SDS011;16104;48.642;9.008;2022-09-17T05:37:36;5.13;;;1.50;;
29006;SDS011;16104;48.642;9.008;2022-09-17T05:42:32;5.63;;;1.60;;
29006;SDS011;16104;48.642;9.008;2022-09-17T05:47:28;4.03;;;1.30;;
29006;SDS011;16104;48.642;9.008;2022-09-17T05:52:27;4.95;;;1.40;;
29006;SDS011;16104;48.642;9.008;2022-09-17T05:57:23;4.57;;;1.50;;
29006;SDS011;16104;48.642;9.008;2022-09-17T06:02:18;3.63;;;1.40;;
29006;SDS011;16104;48.642;9.008;2022-09-17T06:07:14;3.22;;;1.40;;
29006;SDS011;16104;48.642;9.008;2022-09-17T06:12:09;8.07;;;1.50;;
29006;SDS011;16104;48.642;9.008;2022-09-17T06:17:05;4.18;;;1.50;;
29006;SDS011;16104;48.642;9.008;2022-09-17T06:22:00;6.75;;;1.63;;
29006;SDS011;16104;48.642;9.008;2022-09-17T06:26:56;6.45;;;1.48;;
29006;SDS011;16104;48.642;9.008;2022-09-17T06:31:52;5.97;;;1.52;;
29006;SDS011;16104;48.642;9.008;2022-09-17T06:36:50;4.72;;;1.42;;
29006;SDS011;16104;48.642;9.008;2022-09-17T06:41:46;7.07;;;1.70;;
29006;SDS011;16104;48.642;9.008;2022-09-17T06:46:42;4.82;;;1.30;;
29006;SDS011;16104;48.642;9.008;2022-09-17T06:51:38;3.75;;;1.23;;
29006;SDS011;16104;48.642;9.008;2022-09-17T06:56:33;3.92;;;1.48;;
29006;SDS011;16104;48.642;9.008;2022-09-17T07:01:29;3.55;;;1.50;;
29006;SDS011;16104;48.642;9.008;2022-09-17T07:06:24;6.35;;;1.50;;
29006;SDS011;16104;48.642;9.008;2022-09-17T07:11:20;2.60;;;1.30;;
29006;SDS011;16104;48.642;9.008;2022-09-17T07:16:16;5.03;;;1.42;;
29006;SDS011;16104;48.642;9.008;2022-09-17T07:21:11;3.70;;;1.48;;
29006;SDS011;16104;48.642;9.008;2022-09-17T07:26:08;6.10;;;1.70;;
29006;SDS011;16104;48.642;9.008;2022-09-17T07:31:07;5.22;;;1.40;;
29006;SDS011;16104;48.642;9.008;2022-09-17T07:36:04;5.60;;;1.90;;
29006;SDS011;16104;48.642;9.008;2022-09-17T07:41:05;3.13;;;1.27;;
29006;SDS011;16104;48.642;9.008;2022-09-17T07:46:04;2.80;;;1.48;;
29006;SDS011;16104;48.642;9.008;2022-09-17T07:51:01;2.05;;;1.40;;
29006;SDS011;16104;48.642;9.008;2022-09-17T08:01:49;4.88;;;1.25;;
29006;SDS011;16104;48.642;9.008;2022-09-17T08:06:44;2.72;;;1.33;;
29006;SDS011;16104;48.642;9.008;2022-09-17T08:11:42;4.30;;;1.35;;
29006;SDS011;16104;48.642;9.008;2022-09-17T08:16:38;4.07;;;1.60;;
29006;SDS011;16104;48.642;9.008;2022-09-17T08:21:35;2.97;;;1.38;;
29006;SDS011;16104;48.642;9.008;2022-09-17T08:26:30;1.15;;;1.00;;
29006;SDS011;16104;48.642;9.008;2022-09-17T08:31:26;1.63;;;1.17;;
29006;SDS011;16104;48.642;9.008;2022-09-17T08:36:24;3.75;;;1.42;;
29006;SDS011;16104;48.642;9.008;2022-09-17T08:47:07;3.45;;;1.55;;
29006;SDS011;16104;48.642;9.008;2022-09-17T09:18:24;10.52;;;1.90;;
29006;SDS011;16104;48.642;9.008;2022-09-17T09:33:40;9.32;;;2.15;;
29006;SDS011;16104;48.642;9.008;2022-09-17T09:44:02;10.50;;;2.10;;
29006;SDS011;16104;48.642;9.008;2022-09-17T09:59:24;10.32;;;2.30;;
29006;SDS011;16104;48.642;9.008;2022-09-17T10:09:17;5.13;;;1.77;;
29006;SDS011;16104;48.642;9.008;2022-09-17T10:14:22;5.07;;;1.52;;
29006;SDS011;16104;48.642;9.008;2022-09-17T10:19:20;9.00;;;1.75;;
29006;SDS011;16104;48.642;9.008;2022-09-17T10:24:29;3.73;;;1.60;;
29006;SDS011;16104;48.642;9.008;2022-09-17T10:29:27;4.35;;;1.58;;
29006;SDS011;16104;48.642;9.008;2022-09-17T10:34:24;7.10;;;1.58;;
29006;SDS011;16104;48.642;9.008;2022-09-17T10:39:37;5.32;;;1.48;;
29006;SDS011;16104;48.642;9.008;2022-09-17T10:44:52;3.60;;;1.42;;
29006;SDS011;16104;48.642;9.008;2022-09-17T10:49:58;7.15;;;1.30;;
29006;SDS011;16104;48.642;9.008;2022-09-17T11:10:29;3.33;;;1.10;;
29006;SDS011;16104;48.642;9.008;2022-09-17T11:15:38;5.85;;;1.20;;
29006;SDS011;16104;48.642;9.008;2022-09-17T11:26:07;4.03;;;1.10;;
29006;SDS011;16104;48.642;9.008;2022-09-17T11:36:16;4.97;;;1.27;;
29006;SDS011;16104;48.642;9.008;2022-09-17T11:41:16;6.10;;;0.90;;
29006;SDS011;16104;48.642;9.008;2022-09-17T11:46:17;3.30;;;0.80;;
29006;SDS011;16104;48.642;9.008;2022-09-17T11:51:20;3.33;;;1.02;;
29006;SDS011;16104;48.642;9.008;2022-09-17T12:00:56;2.72;;;1.10;;
29006;SDS011;16104;48.642;9.008;2022-09-17T12:06:17;1.95;;;0.95;;
29006;SDS011;16104;48.642;9.008;2022-09-17T12:11:26;3.17;;;1.10;;
29006;SDS011;16104;48.642;9.008;2022-09-17T12:16:45;1.63;;;0.77;;
29006;SDS011;16104;48.642;9.008;2022-09-17T12:21:45;4.60;;;1.10;;
29006;SDS011;16104;48.642;9.008;2022-09-17T12:32:23;1.93;;;0.87;;
29006;SDS011;16104;48.642;9.008;2022-09-17T12:37:54;2.15;;;0.90;;
29006;SDS011;16104;48.642;9.008;2022-09-17T12:48:21;7.00;;;1.38;;
29006;SDS011;16104;48.642;9.008;2022-09-17T12:53:32;1.77;;;0.77;;
29006;SDS011;16104;48.642;9.008;2022-09-17T12:58:41;1.95;;;0.70;;
29006;SDS011;16104;48.642;9.008;2022-09-17T13:03:48;5.03;;;0.82;;
29006;SDS011;16104;48.642;9.008;2022-09-17T13:24:41;2.65;;;0.90;;
29006;SDS011;16104;48.642;9.008;2022-09-17T13:34:39;0.70;;;0.57;;
29006;SDS011;16104;48.642;9.008;2022-09-17T13:39:39;1.17;;;0.45;;
29006;SDS011;16104;48.642;9.008;2022-09-17T13:44:36;2.38;;;0.60;;
29006;SDS011;16104;48.642;9.008;2022-09-17T13:49:41;1.27;;;0.50;;
29006;SDS011;16104;48.642;9.008;2022-09-17T13:54:39;1.60;;;0.60;;
29006;SDS011;16104;48.642;9.008;2022-09-17T13:59:36;1.33;;;0.90;;
29006;SDS011;16104;48.642;9.008;2022-09-17T14:09:44;2.00;;;0.70;;
29006;SDS011;16104;48.642;9.008;2022-09-17T14:14:47;1.40;;;0.60;;
29006;SDS011;16104;48.642;9.008;2022-09-17T14:19:47;1.70;;;0.77;;
29006;SDS011;16104;48.642;9.008;2022-09-17T14:24:46;2.70;;;0.80;;
29006;SDS011;16104;48.642;9.008;2022-09-17T14:34:55;2.38;;;0.90;;
29006;SDS011;16104;48.642;9.008;2022-09-17T14:39:51;3.47;;;0.88;;
29006;SDS011;16104;48.642;9.008;2022-09-17T14:44:48;2.05;;;1.13;;
29006;SDS011;16104;48.642;9.008;2022-09-17T14:50:08;1.80;;;0.90;;
29006;SDS011;16104;48.642;9.008;2022-09-17T14:55:21;4.57;;;0.90;;
29006;SDS011;16104;48.642;9.008;2022-09-17T15:05:21;3.03;;;1.05;;
29006;SDS011;16104;48.642;9.008;2022-09-17T15:10:18;2.20;;;1.00;;
29006;SDS011;16104;48.642;9.008;2022-09-17T15:15:17;2.83;;;1.10;;
29006;SDS011;16104;48.642;9.008;2022-09-17T15:20:16;3.77;;;0.97;;
29006;SDS011;16104;48.642;9.008;2022-09-17T15:25:22;4.13;;;1.20;;
29006;SDS011;16104;48.642;9.008;2022-09-17T15:30:21;3.90;;;1.00;;
29006;SDS011;16104;48.642;9.008;2022-09-17T15:40:23;3.53;;;1.13;;
29006;SDS011;16104;48.642;9.008;2022-09-17T15:45:28;3.70;;;1.15;;
29006;SDS011;16104;48.642;9.008;2022-09-17T15:50:26;2.92;;;1.00;;
29006;SDS011;16104;48.642;9.008;2022-09-17T16:00:26;4.90;;;1.00;;
29006;SDS011;16104;48.642;9.008;2022-09-17T16:10:18;2.85;;;1.15;;
29006;SDS011;16104;48.642;9.008;2022-09-17T16:15:13;2.03;;;0.80;;
29006;SDS011;16104;48.642;9.008;2022-09-17T16:20:17;2.67;;;0.82;;
29006;SDS011;16104;48.642;9.008;2022-09-17T16:25:15;1.80;;;0.88;;
29006;SDS011;16104;48.642;9.008;2022-09-17T16:30:13;1.48;;;0.88;;
29006;SDS011;16104;48.642;9.008;2022-09-17T16:35:14;2.85;;;0.88;;
29006;SDS011;16104;48.642;9.008;2022-09-17T16:40:14;2.22;;;0.88;;
29006;SDS011;16104;48.642;9.008;2022-09-17T16:45:10;2.85;;;1.00;;
29006;SDS011;16104;48.642;9.008;2022-09-17T16:50:07;4.03;;;0.95;;
29006;SDS011;16104;48.642;9.008;2022-09-17T16:55:05;2.00;;;0.75;;
29006;SDS011;16104;48.642;9.008;2022-09-17T17:00:01;3.60;;;1.10;;
29006;SDS011;16104;48.642;9.008;2022-09-17T17:04:58;2.30;;;0.90;;
29006;SDS011;16104;48.642;9.008;2022-09-17T17:09:53;3.90;;;1.05;;
29006;SDS011;16104;48.642;9.008;2022-09-17T17:14:49;2.67;;;1.08;;
29006;SDS011;16104;48.642;9.008;2022-09-17T17:19:46;2.47;;;1.08;;
29006;SDS011;16104;48.642;9.008;2022-09-17T17:24:41;3.35;;;1.10;;
29006;SDS011;16104;48.642;9.008;2022-09-17T17:46:22;3.28;;;1.38;;
29006;SDS011;16104;48.642;9.008;2022-09-17T17:51:18;6.28;;;1.40;;
29006;SDS011;16104;48.642;9.008;2022-09-17T17:56:14;2.50;;;1.00;;
29006;SDS011;16104;48.642;9.008;2022-09-17T18:01:17;4.82;;;0.90;;
29006;SDS011;16104;48.642;9.008;2022-09-17T18:06:14;3.05;;;0.82;;
29006;SDS011;16104;48.642;9.008;2022-09-17T18:11:10;4.18;;;2.35;;
29006;SDS011;16104;48.642;9.008;2022-09-17T18:16:06;4.22;;;1.80;;
29006;SDS011;16104;48.642;9.008;2022-09-17T18:21:05;3.30;;;1.95;;
29006;SDS011;16104;48.642;9.008;2022-09-17T18:26:10;1.90;;;1.13;;
29006;SDS011;16104;48.642;9.008;2022-09-17T18:31:08;3.03;;;1.70;;
29006;SDS011;16104;48.642;9.008;2022-09-17T18:36:04;1.70;;;1.00;;
29006;SDS011;16104;48.642;9.008;2022-09-17T18:41:06;0.88;;;0.60;;
29006;SDS011;16104;48.642;9.008;2022-09-17T18:46:05;0.98;;;0.70;;
29006;SDS011;16104;48.642;9.008;2022-09-17T18:51:05;1.33;;;0.60;;
29006;SDS011;16104;48.642;9.008;2022-09-17T18:56:03;1.15;;;0.70;;
29006;SDS011;16104;48.642;9.008;2022-09-17T19:01:05;1.90;;;0.60;;
29006;SDS011;16104;48.642;9.008;2022-09-17T19:06:02;1.00;;;0.50;;
29006;SDS011;16104;48.642;9.008;2022-09-17T19:10:59;1.13;;;0.50;;
29006;SDS011;16104;48.642;9.008;2022-09-17T19:15:58;3.55;;;0.77;;
29006;SDS011;16104;48.642;9.008;2022-09-17T19:21:00;1.98;;;0.68;;
29006;SDS011;16104;48.642;9.008;2022-09-17T19:26:03;3.78;;;0.90;;
29006;SDS011;16104;48.642;9.008;2022-09-17T19:31:07;3.15;;;1.58;;
29006;SDS011;16104;48.642;9.008;2022-09-17T19:36:05;2.20;;;0.60;;
29006;SDS011;16104;48.642;9.008;2022-09-17T19:41:14;5.20;;;0.60;;
29006;SDS011;16104;48.642;9.008;2022-09-17T19:51:09;2.78;;;0.60;;
29006;SDS011;16104;48.642;9.008;2022-09-17T19:56:05;1.27;;;0.47;;
29006;SDS011;16104;48.642;9.008;2022-09-17T20:01:04;2.95;;;0.60;;
29006;SDS011;16104;48.642;9.008;2022-09-17T20:06:00;1.80;;;0.45;;
29006;SDS011;16104;48.642;9.008;2022-09-17T20:11:03;0.90;;;0.38;;
29006;SDS011;16104;48.642;9.008;2022-09-17T20:16:03;1.05;;;0.40;;
29006;SDS011;16104;48.642;9.008;2022-09-17T20:21:16;1.85;;;0.63;;
29006;SDS011;16104;48.642;9.008;2022-09-17T20:26:13;1.55;;;0.40;;
29006;SDS011;16104;48.642;9.008;2022-09-17T20:31:11;0.43;;;0.30;;
29006;SDS011;16104;48.642;9.008;2022-09-17T20:36:15;2.00;;;0.50;;
29006;SDS011;16104;48.642;9.008;2022-09-17T20:41:12;2.50;;;0.60;;
29006;SDS011;16104;48.642;9.008;2022-09-17T20:46:08;1.90;;;0.70;;
29006;SDS011;16104;48.642;9.008;2022-09-17T20:51:06;1.45;;;0.45;;
29006;SDS011;16104;48.642;9.008;2022-09-17T20:56:10;1.63;;;0.57;;
29006;SDS011;16104;48.642;9.008;2022-09-17T21:01:11;2.25;;;0.60;;
29006;SDS011;16104;48.642;9.008;2022-09-17T21:11:13;1.55;;;0.60;;
29006;SDS011;16104;48.642;9.008;2022-09-17T21:16:10;1.83;;;0.75;;
29006;SDS011;16104;48.642;9.008;2022-09-17T21:21:07;2.22;;;0.70;;
29006;SDS011;16104;48.642;9.008;2022-09-17T21:26:12;0.82;;;0.50;;
29006;SDS011;16104;48.642;9.008;2022-09-17T21:31:10;1.92;;;0.90;;
29006;SDS011;16104;48.642;9.008;2022-09-17T21:36:11;2.05;;;0.70;;
29006;SDS011;16104;48.642;9.008;2022-09-17T21:41:13;2.00;;;0.73;;
29006;SDS011;16104;48.642;9.008;2022-09-17T21:46:10;1.52;;;0.70;;
29006;SDS011;16104;48.642;9.008;2022-09-17T21:51:06;4.90;;;0.93;;
29006;SDS011;16104;48.642;9.008;2022-09-17T21:56:05;2.78;;;1.23;;
29006;SDS011;16104;48.642;9.008;2022-09-17T22:01:03;4.20;;;0.93;;
29006;SDS011;16104;48.642;9.008;2022-09-17T22:06:00;2.22;;;0.88;;
29006;SDS011;16104;48.642;9.008;2022-09-17T22:11:10;3.20;;;0.95;;
29006;SDS011;16104;48.642;9.008;2022-09-17T22:21:11;2.42;;;0.95;;
29006;SDS011;16104;48.642;9.008;2022-09-17T22:26:08;2.40;;;1.10;;
29006;SDS011;16104;48.642;9.008;2022-09-17T22:31:05;2.50;;;0.95;;
29006;SDS011;16104;48.642;9.008;2022-09-17T22:36:06;1.40;;;1.00;;
29006;SDS011;16104;48.642;9.008;2022-09-17T22:41:07;5.72;;;1.20;;
29006;SDS011;16104;48.642;9.008;2022-09-17T22:46:16;2.53;;;0.90;;
29006;SDS011;16104;48.642;9.008;2022-09-17T22:51:13;3.95;;;1.00;;
29006;SDS011;16104;48.642;9.008;2022-09-17T22:56:10;2.90;;;0.90;;
29006;SDS011;16104;48.642;9.008;2022-09-17T23:01:08;7.30;;;1.13;;
29006;SDS011;16104;48.642;9.008;2022-09-17T23:06:06;4.10;;;1.38;;
29006;SDS011;16104;48.642;9.008;2022-09-17T23:11:04;5.45;;;1.15;;
29006;SDS011;16104;48.642;9.008;2022-09-17T23:16:04;4.70;;;1.20;;
29006;SDS011;16104;48.642;9.008;2022-09-17T23:21:03;2.83;;;1.27;;
29006;SDS011;16104;48.642;9.008;2022-09-17T23:26:04;7.72;;;1.25;;
29006;SDS011;16104;48.642;9.008;2022-09-17T23:31:05;4.63;;;1.10;;
29006;SDS011;16104;48.642;9.008;2022-09-17T23:36:11;7.47;;;1.40;;
29006;SDS011;16104;48.642;9.008;2022-09-17T23:41:11;4.13;;;1.20;;
29006;SDS011;16104;48.642;9.008;2022-09-17T23:46:15;7.60;;;1.52;;
29006;SDS011;16104;48.642;9.008;2022-09-17T23:51:11;3.67;;;1.05;;
29006;SDS011;16104;48.642;9.008;2022-09-17T23:56:09;3.47;;;0.95;;
